createdAt,value
2023-01-29T00:00:52.418Z,2.98
2023-01-29T00:01:52.827Z,2.98
2023-01-29T00:02:53.169Z,2.98
2023-01-29T00:03:53.520Z,3.00
2023-01-29T00:04:58.725Z,3.00
2023-01-29T00:05:54.237Z,3.00
2023-01-29T00:06:54.594Z,3.01
2023-01-29T00:07:54.959Z,3.03
2023-01-29T00:08:55.250Z,3.04
2023-01-29T00:09:55.606Z,3.04
2023-01-29T00:10:55.991Z,3.04
2023-01-29T00:11:56.309Z,3.04
2023-01-29T00:12:56.696Z,3.07
2023-01-29T00:13:57.053Z,3.10
2023-01-29T00:14:57.337Z,3.10
2023-01-29T00:15:57.674Z,3.10
2023-01-29T00:16:58.100Z,3.10
2023-01-29T00:17:58.353Z,3.10
2023-01-29T00:18:58.747Z,3.10
2023-01-29T00:19:59.070Z,3.10
2023-01-29T00:20:59.490Z,3.13
2023-01-29T00:21:59.784Z,3.13
2023-01-29T00:23:00.109Z,3.14
2023-01-29T00:24:00.601Z,3.13
2023-01-29T00:25:00.806Z,3.14
2023-01-29T00:26:01.192Z,3.13
2023-01-29T00:27:01.538Z,3.13
2023-01-29T00:28:01.889Z,3.18
2023-01-29T00:29:02.234Z,3.19
2023-01-29T00:30:02.566Z,3.16
2023-01-29T00:31:03.042Z,3.18
2023-01-29T00:32:03.455Z,3.16
2023-01-29T00:33:03.612Z,3.16
2023-01-29T00:34:03.966Z,3.14
2023-01-29T00:35:04.315Z,3.14
2023-01-29T00:36:04.654Z,3.14
2023-01-29T00:37:05.064Z,3.16
2023-01-29T00:38:05.387Z,3.16
2023-01-29T00:39:05.673Z,3.16
2023-01-29T00:40:06.020Z,3.21
2023-01-29T00:41:06.405Z,3.21
2023-01-29T00:42:06.750Z,3.19
2023-01-29T00:43:07.103Z,3.19
2023-01-29T00:44:07.483Z,3.18
2023-01-29T00:45:07.826Z,3.19
2023-01-29T00:46:08.141Z,3.19
2023-01-29T00:47:08.507Z,3.22
2023-01-29T00:48:08.869Z,3.22
2023-01-29T00:49:09.274Z,3.25
2023-01-29T00:50:09.563Z,3.31
2023-01-29T00:51:09.930Z,3.28
2023-01-29T00:52:10.305Z,3.29
2023-01-29T00:53:10.638Z,3.31
2023-01-29T00:54:10.978Z,3.31
2023-01-29T00:55:11.376Z,3.32
2023-01-29T00:56:11.813Z,3.34
2023-01-29T00:57:12.051Z,3.34
2023-01-29T00:58:12.381Z,3.36
2023-01-29T00:59:13.320Z,3.40
2023-01-29T01:00:13.153Z,3.40
2023-01-29T01:01:13.525Z,3.40
2023-01-29T01:02:13.850Z,3.42
2023-01-29T01:03:14.173Z,3.41
2023-01-29T01:04:14.478Z,3.42
2023-01-29T01:05:14.829Z,3.41
2023-01-29T01:06:15.168Z,3.41
2023-01-29T01:07:16.555Z,3.40
2023-01-29T01:08:15.866Z,3.40
2023-01-29T01:09:16.208Z,3.42
2023-01-29T01:10:16.926Z,3.44
2023-01-29T01:11:16.968Z,3.41
2023-01-29T01:12:17.335Z,3.44
2023-01-29T01:13:17.684Z,3.44
2023-01-29T01:14:18.014Z,3.44
2023-01-29T01:15:18.372Z,3.47
2023-01-29T01:16:18.858Z,3.48
2023-01-29T01:17:19.106Z,3.50
2023-01-29T01:18:19.529Z,3.47
2023-01-29T01:19:19.783Z,3.45
2023-01-29T01:20:20.140Z,3.44
2023-01-29T01:21:20.498Z,3.40
2023-01-29T01:22:20.847Z,3.40
2023-01-29T01:23:21.199Z,3.36
2023-01-29T01:24:21.649Z,3.34
2023-01-29T01:25:21.893Z,3.36
2023-01-29T01:26:22.237Z,3.32
2023-01-29T01:27:22.597Z,3.32
2023-01-29T01:28:22.942Z,3.32
2023-01-29T01:29:23.270Z,3.32
2023-01-29T01:30:23.682Z,3.32
2023-01-29T01:31:24.166Z,3.31
2023-01-29T01:32:24.385Z,3.31
2023-01-29T01:33:24.683Z,3.28
2023-01-29T01:34:25.066Z,3.29
2023-01-29T01:35:25.396Z,3.28
2023-01-29T01:36:25.777Z,3.28
2023-01-29T01:37:26.158Z,3.29
2023-01-29T01:38:32.971Z,3.26
2023-01-29T01:39:26.783Z,3.26
2023-01-29T01:40:27.112Z,3.26
2023-01-29T01:41:27.517Z,3.25
2023-01-29T01:42:27.866Z,3.26
2023-01-29T01:43:28.213Z,3.25
2023-01-29T01:44:28.541Z,3.25
2023-01-29T01:45:28.909Z,3.22
2023-01-29T01:46:29.231Z,3.22
2023-01-29T01:47:29.648Z,3.21
2023-01-29T01:48:29.966Z,3.19
2023-01-29T01:49:30.304Z,3.19
2023-01-29T01:50:30.676Z,3.22
2023-01-29T01:51:30.993Z,3.21
2023-01-29T01:52:31.384Z,3.21
2023-01-29T01:53:31.733Z,3.19
2023-01-29T01:54:32.058Z,3.18
2023-01-29T01:55:32.420Z,3.18
2023-01-29T01:56:33.705Z,3.21
2023-01-29T01:57:33.158Z,3.19
2023-01-29T01:58:33.553Z,3.18
2023-01-29T01:59:33.860Z,3.14
2023-01-29T02:00:34.368Z,3.14
2023-01-29T02:01:34.561Z,3.18
2023-01-29T02:02:34.960Z,3.18
2023-01-29T02:03:35.288Z,3.21
2023-01-29T02:04:35.674Z,3.18
2023-01-29T02:05:36.016Z,3.18
2023-01-29T02:06:36.355Z,3.16
2023-01-29T02:07:36.698Z,3.14
2023-01-29T02:08:37.047Z,3.16
2023-01-29T02:09:37.404Z,3.14
2023-01-29T02:10:37.812Z,3.13
2023-01-29T02:11:38.118Z,3.13
2023-01-29T02:12:38.511Z,3.11
2023-01-29T02:13:38.826Z,3.13
2023-01-29T02:14:39.234Z,3.11
2023-01-29T02:15:39.585Z,3.10
2023-01-29T02:16:39.921Z,3.11
2023-01-29T02:17:40.421Z,3.11
2023-01-29T02:18:40.635Z,3.08
2023-01-29T02:19:40.987Z,3.10
2023-01-29T02:20:41.337Z,3.07
2023-01-29T02:21:41.700Z,3.07
2023-01-29T02:22:42.122Z,3.08
2023-01-29T02:23:42.392Z,3.07
2023-01-29T02:24:42.781Z,3.05
2023-01-29T02:25:43.130Z,3.05
2023-01-29T02:26:43.444Z,3.07
2023-01-29T02:27:43.828Z,3.11
2023-01-29T02:28:44.190Z,3.10
2023-01-29T02:29:44.491Z,3.10
2023-01-29T02:30:44.949Z,3.11
2023-01-29T02:31:45.280Z,3.10
2023-01-29T02:32:45.624Z,3.11
2023-01-29T02:33:45.919Z,3.13
2023-01-29T02:34:46.301Z,3.10
2023-01-29T02:35:46.637Z,3.10
2023-01-29T02:36:46.994Z,3.13
2023-01-29T02:37:47.351Z,3.11
2023-01-29T02:38:47.700Z,3.14
2023-01-29T02:39:48.089Z,3.11
2023-01-29T02:40:48.398Z,3.13
2023-01-29T02:41:48.796Z,3.11
2023-01-29T02:42:49.158Z,3.10
2023-01-29T02:43:49.451Z,3.10
2023-01-29T02:44:49.837Z,3.11
2023-01-29T02:45:50.184Z,3.10
2023-01-29T02:46:50.510Z,3.10
2023-01-29T02:47:50.909Z,3.08
2023-01-29T02:48:51.240Z,3.10
2023-01-29T02:49:51.579Z,3.10
2023-01-29T02:50:51.924Z,3.10
2023-01-29T02:51:52.257Z,3.08
2023-01-29T02:52:52.608Z,3.07
2023-01-29T02:53:52.937Z,3.05
2023-01-29T02:54:53.305Z,3.03
2023-01-29T02:55:53.660Z,3.07
2023-01-29T02:56:53.962Z,3.05
2023-01-29T02:57:54.329Z,3.05
2023-01-29T02:58:54.694Z,3.05
2023-01-29T02:59:55.026Z,3.05
2023-01-29T03:00:55.407Z,3.07
2023-01-29T03:01:55.780Z,3.05
2023-01-29T03:02:56.087Z,3.05
2023-01-29T03:03:56.418Z,3.05
2023-01-29T03:04:56.751Z,3.04
2023-01-29T03:05:57.106Z,3.05
2023-01-29T03:06:57.429Z,3.04
2023-01-29T03:07:57.774Z,3.03
2023-01-29T03:08:58.120Z,3.04
2023-01-29T03:09:58.457Z,3.04
2023-01-29T03:10:58.803Z,3.03
2023-01-29T03:11:59.142Z,3.01
2023-01-29T03:12:59.478Z,3.03
2023-01-29T03:13:59.845Z,3.00
2023-01-29T03:15:00.160Z,2.98
2023-01-29T03:16:00.531Z,2.97
2023-01-29T03:17:00.896Z,2.97
2023-01-29T03:18:01.226Z,2.93
2023-01-29T03:19:01.602Z,2.95
2023-01-29T03:20:01.926Z,2.92
2023-01-29T03:21:02.252Z,2.92
2023-01-29T03:22:02.599Z,2.92
2023-01-29T03:23:02.948Z,2.92
2023-01-29T03:24:03.354Z,2.89
2023-01-29T03:25:03.637Z,2.90
2023-01-29T03:26:04.003Z,2.87
2023-01-29T03:27:04.341Z,2.89
2023-01-29T03:28:04.690Z,2.87
2023-01-29T03:29:05.028Z,2.89
2023-01-29T03:30:05.371Z,2.87
2023-01-29T03:31:05.735Z,2.89
2023-01-29T03:32:06.138Z,2.87
2023-01-29T03:33:06.453Z,2.87
2023-01-29T03:34:06.821Z,2.87
2023-01-29T03:35:07.094Z,2.87
2023-01-29T03:36:07.433Z,2.87
2023-01-29T03:37:07.777Z,2.89
2023-01-29T03:38:08.199Z,2.89
2023-01-29T03:39:08.500Z,2.87
2023-01-29T03:40:08.861Z,2.87
2023-01-29T03:41:09.202Z,2.86
2023-01-29T03:42:09.587Z,2.86
2023-01-29T03:43:09.908Z,2.86
2023-01-29T03:44:10.220Z,2.87
2023-01-29T03:45:10.595Z,2.87
2023-01-29T03:46:10.956Z,2.87
2023-01-29T03:47:11.303Z,2.87
2023-01-29T03:48:11.684Z,2.86
2023-01-29T03:49:11.995Z,2.86
2023-01-29T03:50:12.335Z,2.86
2023-01-29T03:51:12.673Z,2.85
2023-01-29T03:52:13.062Z,2.86
2023-01-29T03:53:13.405Z,2.87
2023-01-29T03:54:13.766Z,2.85
2023-01-29T03:55:14.096Z,2.85
2023-01-29T03:56:14.549Z,2.86
2023-01-29T03:57:14.824Z,2.83
2023-01-29T03:58:15.203Z,2.85
2023-01-29T03:59:15.513Z,2.83
2023-01-29T04:00:16.313Z,2.85
2023-01-29T04:01:16.260Z,2.83
2023-01-29T04:02:16.592Z,2.80
2023-01-29T04:03:16.974Z,2.80
2023-01-29T04:04:17.309Z,2.80
2023-01-29T04:05:17.631Z,2.79
2023-01-29T04:06:17.998Z,2.79
2023-01-29T04:07:18.314Z,2.82
2023-01-29T04:08:18.671Z,2.80
2023-01-29T04:09:19.031Z,2.79
2023-01-29T04:10:19.359Z,2.80
2023-01-29T04:11:19.689Z,2.82
2023-01-29T04:12:20.071Z,2.80
2023-01-29T04:13:20.422Z,2.79
2023-01-29T04:14:20.773Z,2.79
2023-01-29T04:15:21.104Z,2.77
2023-01-29T04:16:21.469Z,2.77
2023-01-29T04:17:21.792Z,2.79
2023-01-29T04:18:22.153Z,2.77
2023-01-29T04:19:22.493Z,2.80
2023-01-29T04:20:22.840Z,2.79
2023-01-29T04:21:23.210Z,2.79
2023-01-29T04:22:23.521Z,2.79
2023-01-29T04:23:23.891Z,2.79
2023-01-29T04:24:24.254Z,2.75
2023-01-29T04:25:24.576Z,2.77
2023-01-29T04:26:24.953Z,2.77
2023-01-29T04:27:25.291Z,2.77
2023-01-29T04:28:25.676Z,2.77
2023-01-29T04:29:27.406Z,2.75
2023-01-29T04:30:26.372Z,2.75
2023-01-29T04:31:26.778Z,2.74
2023-01-29T04:32:27.058Z,2.74
2023-01-29T04:33:27.462Z,2.75
2023-01-29T04:34:27.740Z,2.72
2023-01-29T04:35:28.117Z,2.72
2023-01-29T04:36:28.449Z,2.72
2023-01-29T04:37:28.790Z,2.74
2023-01-29T04:38:29.187Z,2.72
2023-01-29T04:39:29.486Z,2.72
2023-01-29T04:40:29.840Z,2.71
2023-01-29T04:41:30.169Z,2.72
2023-01-29T04:42:30.514Z,2.72
2023-01-29T04:43:30.876Z,2.71
2023-01-29T04:44:31.205Z,2.71
2023-01-29T04:45:31.546Z,2.71
2023-01-29T04:46:31.904Z,2.69
2023-01-29T04:47:32.276Z,2.69
2023-01-29T04:48:32.608Z,2.69
2023-01-29T04:49:32.921Z,2.68
2023-01-29T04:50:33.254Z,2.67
2023-01-29T04:51:33.650Z,2.68
2023-01-29T04:52:33.982Z,2.68
2023-01-29T04:53:34.305Z,2.68
2023-01-29T04:54:36.450Z,2.68
2023-01-29T04:55:34.967Z,2.68
2023-01-29T04:56:35.349Z,2.68
2023-01-29T04:57:35.717Z,2.67
2023-01-29T04:58:36.082Z,2.68
2023-01-29T04:59:36.430Z,2.68
2023-01-29T05:00:36.767Z,2.67
2023-01-29T05:01:37.147Z,2.67
2023-01-29T05:02:37.545Z,2.67
2023-01-29T05:03:37.825Z,2.68
2023-01-29T05:04:38.171Z,2.68
2023-01-29T05:05:38.496Z,2.68
2023-01-29T05:06:38.860Z,2.67
2023-01-29T05:07:39.193Z,2.67
2023-01-29T05:08:39.554Z,2.68
2023-01-29T05:09:39.917Z,2.65
2023-01-29T05:10:40.263Z,2.67
2023-01-29T05:11:40.598Z,2.65
2023-01-29T05:12:40.995Z,2.65
2023-01-29T05:13:41.335Z,2.65
2023-01-29T05:14:41.679Z,2.67
2023-01-29T05:15:42.048Z,2.65
2023-01-29T05:16:42.371Z,2.67
2023-01-29T05:17:42.691Z,2.67
2023-01-29T05:18:43.072Z,2.67
2023-01-29T05:19:43.432Z,2.67
2023-01-29T05:20:43.799Z,2.68
2023-01-29T05:21:44.204Z,2.69
2023-01-29T05:22:44.463Z,2.69
2023-01-29T05:23:44.824Z,2.71
2023-01-29T05:24:45.156Z,2.69
2023-01-29T05:25:45.510Z,2.67
2023-01-29T05:26:45.845Z,2.68
2023-01-29T05:27:46.244Z,2.71
2023-01-29T05:28:46.576Z,2.72
2023-01-29T05:29:46.936Z,2.72
2023-01-29T05:30:47.324Z,2.71
2023-01-29T05:31:47.695Z,2.72
2023-01-29T05:32:47.976Z,2.72
2023-01-29T05:33:48.375Z,2.74
2023-01-29T05:34:48.692Z,2.74
2023-01-29T05:35:49.023Z,2.74
2023-01-29T05:36:49.376Z,2.74
2023-01-29T05:37:49.712Z,2.74
2023-01-29T05:38:50.105Z,2.75
2023-01-29T05:39:50.416Z,2.75
2023-01-29T05:40:50.764Z,2.75
2023-01-29T05:41:51.114Z,2.77
2023-01-29T05:42:51.452Z,2.79
2023-01-29T05:43:51.822Z,2.80
2023-01-29T05:44:52.180Z,2.79
2023-01-29T05:45:52.480Z,2.79
2023-01-29T05:46:52.893Z,2.77
2023-01-29T05:47:53.192Z,2.79
2023-01-29T05:48:53.582Z,2.80
2023-01-29T05:49:53.914Z,2.83
2023-01-29T05:50:54.243Z,2.82
2023-01-29T05:51:54.575Z,2.82
2023-01-29T05:52:54.917Z,2.80
2023-01-29T05:53:55.258Z,2.79
2023-01-29T05:54:55.688Z,2.80
2023-01-29T05:55:56.002Z,2.82
2023-01-29T05:56:56.300Z,2.85
2023-01-29T05:57:56.659Z,2.83
2023-01-29T05:58:57.025Z,2.83
2023-01-29T05:59:57.390Z,2.83
2023-01-29T06:00:57.719Z,2.83
2023-01-29T06:01:58.106Z,2.87
2023-01-29T06:02:58.493Z,2.86
2023-01-29T06:03:58.842Z,2.89
2023-01-29T06:04:59.135Z,2.87
2023-01-29T06:05:59.514Z,2.85
2023-01-29T06:06:59.841Z,2.85
2023-01-29T06:08:00.207Z,2.85
2023-01-29T06:09:00.570Z,2.85
2023-01-29T06:10:00.937Z,2.87
2023-01-29T06:11:01.272Z,2.85
2023-01-29T06:12:01.662Z,2.86
2023-01-29T06:13:01.992Z,2.85
2023-01-29T06:14:02.350Z,2.85
2023-01-29T06:15:02.683Z,2.82
2023-01-29T06:16:03.100Z,2.83
2023-01-29T06:17:03.437Z,2.85
2023-01-29T06:18:03.756Z,2.83
2023-01-29T06:19:04.101Z,2.82
2023-01-29T06:20:04.433Z,2.83
2023-01-29T06:21:04.774Z,2.85
2023-01-29T06:22:05.136Z,2.85
2023-01-29T06:23:05.473Z,2.85
2023-01-29T06:24:05.871Z,2.86
2023-01-29T06:25:06.162Z,2.86
2023-01-29T06:26:06.526Z,2.87
2023-01-29T06:27:06.885Z,2.87
2023-01-29T06:28:07.194Z,2.87
2023-01-29T06:29:07.562Z,2.89
2023-01-29T06:30:07.916Z,2.89
2023-01-29T06:31:37.293Z,2.90
2023-01-29T06:32:08.685Z,2.90
2023-01-29T06:33:08.967Z,2.90
2023-01-29T06:34:09.391Z,2.89
2023-01-29T06:35:09.693Z,2.87
2023-01-29T06:36:10.051Z,2.87
2023-01-29T06:37:10.400Z,2.89
2023-01-29T06:38:10.729Z,2.86
2023-01-29T06:39:11.116Z,2.86
2023-01-29T06:40:11.409Z,2.85
2023-01-29T06:41:11.765Z,2.85
2023-01-29T06:42:12.107Z,2.85
2023-01-29T06:43:12.447Z,2.85
2023-01-29T06:44:12.798Z,2.82
2023-01-29T06:45:13.139Z,2.82
2023-01-29T06:46:13.494Z,2.80
2023-01-29T06:47:13.832Z,2.77
2023-01-29T06:48:14.185Z,2.75
2023-01-29T06:49:14.539Z,2.75
2023-01-29T06:50:15.367Z,2.74
2023-01-29T06:51:15.280Z,2.72
2023-01-29T06:52:15.650Z,2.72
2023-01-29T06:53:15.987Z,2.69
2023-01-29T06:54:16.348Z,2.69
2023-01-29T06:55:16.724Z,2.68
2023-01-29T06:56:17.105Z,2.67
2023-01-29T06:57:17.414Z,2.65
2023-01-29T06:58:17.668Z,2.62
2023-01-29T06:59:18.093Z,2.61
2023-01-29T07:00:18.786Z,2.61
2023-01-29T07:01:34.548Z,2.61
2023-01-29T07:02:19.166Z,2.57
2023-01-29T07:03:19.578Z,2.56
2023-01-29T07:04:19.797Z,2.56
2023-01-29T07:05:20.062Z,2.53
2023-01-29T07:06:20.315Z,2.54
2023-01-29T07:07:20.653Z,2.56
2023-01-29T07:08:20.902Z,2.56
2023-01-29T07:09:21.248Z,2.54
2023-01-29T07:10:21.361Z,2.53
2023-01-29T07:11:21.679Z,2.53
2023-01-29T07:12:21.916Z,2.53
2023-01-29T07:13:22.201Z,2.51
2023-01-29T07:14:22.516Z,2.53
2023-01-29T07:15:22.774Z,2.51
2023-01-29T07:16:23.140Z,2.53
2023-01-29T07:17:23.386Z,2.51
2023-01-29T07:18:23.667Z,2.53
2023-01-29T07:19:23.981Z,2.53
2023-01-29T07:20:24.232Z,2.53
2023-01-29T07:21:24.526Z,2.51
2023-01-29T07:22:24.812Z,2.50
2023-01-29T07:23:25.151Z,2.53
2023-01-29T07:24:25.444Z,2.57
2023-01-29T07:25:25.746Z,2.56
2023-01-29T07:26:25.981Z,2.56
2023-01-29T07:27:26.239Z,2.53
2023-01-29T07:28:26.403Z,2.54
2023-01-29T07:29:26.597Z,2.53
2023-01-29T07:30:26.750Z,2.53
2023-01-29T07:31:27.107Z,2.51
2023-01-29T07:32:27.213Z,2.51
2023-01-29T07:33:27.383Z,2.53
2023-01-29T07:34:27.572Z,2.54
2023-01-29T07:35:27.810Z,2.51
2023-01-29T07:36:27.982Z,2.51
2023-01-29T07:37:28.136Z,2.50
2023-01-29T07:38:28.444Z,2.49
2023-01-29T07:39:28.627Z,2.50
2023-01-29T07:40:28.824Z,2.51
2023-01-29T07:41:29.103Z,2.51
2023-01-29T07:42:29.279Z,2.51
2023-01-29T07:43:29.540Z,2.51
2023-01-29T07:44:29.717Z,2.53
2023-01-29T07:45:29.967Z,2.54
2023-01-29T07:46:30.014Z,2.53
2023-01-29T07:47:30.178Z,2.53
2023-01-29T07:48:30.373Z,2.53
2023-01-29T07:49:30.532Z,2.51
2023-01-29T07:50:30.677Z,2.54
2023-01-29T07:51:31.000Z,2.54
2023-01-29T07:52:31.161Z,2.57
2023-01-29T07:53:31.308Z,2.60
2023-01-29T07:54:31.640Z,2.57
2023-01-29T07:55:31.805Z,2.57
2023-01-29T07:56:31.945Z,2.62
2023-01-29T07:57:32.132Z,2.60
2023-01-29T07:58:32.982Z,2.64
2023-01-29T07:59:32.666Z,2.65
2023-01-29T08:00:32.792Z,2.67
2023-01-29T08:01:32.935Z,2.67
2023-01-29T08:02:33.289Z,2.68
2023-01-29T08:03:33.509Z,2.71
2023-01-29T08:04:33.737Z,2.71
2023-01-29T08:05:33.851Z,2.72
2023-01-29T08:06:34.124Z,2.71
2023-01-29T08:07:34.436Z,2.74
2023-01-29T08:08:34.744Z,2.75
2023-01-29T08:09:35.008Z,2.77
2023-01-29T08:10:35.181Z,2.79
2023-01-29T08:11:35.471Z,2.80
2023-01-29T08:12:35.806Z,2.82
2023-01-29T08:13:36.076Z,2.85
2023-01-29T08:14:36.274Z,2.86
2023-01-29T08:15:38.739Z,2.89
2023-01-29T08:16:36.932Z,2.89
2023-01-29T08:17:49.101Z,2.92
2023-01-29T08:18:37.307Z,2.93
2023-01-29T08:19:37.493Z,2.98
2023-01-29T08:20:37.789Z,2.98
2023-01-29T08:21:37.956Z,3.00
2023-01-29T08:22:38.251Z,3.04
2023-01-29T08:23:38.380Z,3.07
2023-01-29T08:24:53.303Z,3.07
2023-01-29T08:25:38.757Z,3.07
2023-01-29T08:26:39.013Z,3.10
2023-01-29T08:27:39.203Z,3.10
2023-01-29T08:28:39.356Z,3.13
2023-01-29T08:29:39.711Z,3.14
2023-01-29T08:30:39.986Z,3.14
2023-01-29T08:31:40.279Z,3.19
2023-01-29T08:32:40.391Z,3.21
2023-01-29T08:33:40.577Z,3.22
2023-01-29T08:34:40.770Z,3.25
2023-01-29T08:35:40.893Z,3.28
2023-01-29T08:36:41.208Z,3.29
2023-01-29T08:37:41.384Z,3.32
2023-01-29T08:38:41.520Z,3.37
2023-01-29T08:40:41.874Z,3.37
2023-01-29T08:41:42.181Z,3.40
2023-01-29T08:42:42.448Z,3.36
2023-01-29T08:43:42.612Z,3.40
2023-01-29T08:44:42.798Z,3.44
2023-01-29T08:45:43.041Z,3.42
2023-01-29T08:46:43.117Z,3.44
2023-01-29T08:47:43.414Z,3.41
2023-01-29T08:48:43.596Z,3.45
2023-01-29T08:49:43.888Z,3.47
2023-01-29T08:50:44.136Z,3.45
2023-01-29T08:51:44.303Z,3.44
2023-01-29T08:52:44.462Z,3.45
2023-01-29T08:53:44.626Z,3.45
2023-01-29T08:54:44.934Z,3.47
2023-01-29T08:55:45.220Z,3.42
2023-01-29T08:56:45.573Z,3.51
2023-01-29T08:57:45.753Z,3.53
2023-01-29T08:58:46.007Z,3.51
2023-01-29T08:59:46.219Z,3.55
2023-01-29T09:00:46.304Z,3.51
2023-01-29T09:01:46.556Z,3.58
2023-01-29T09:02:46.823Z,3.55
2023-01-29T09:03:46.961Z,3.58
2023-01-29T09:04:47.102Z,3.60
2023-01-29T09:05:47.257Z,3.58
2023-01-29T09:06:47.525Z,3.51
2023-01-29T09:07:47.756Z,3.51
2023-01-29T09:08:47.904Z,3.45
2023-01-29T09:09:48.056Z,3.45
2023-01-29T09:10:48.189Z,3.47
2023-01-29T09:11:48.536Z,3.50
2023-01-29T09:12:48.792Z,3.53
2023-01-29T09:13:49.040Z,3.51
2023-01-29T09:14:49.363Z,3.41
2023-01-29T09:15:49.385Z,3.42
2023-01-29T09:16:49.610Z,3.42
2023-01-29T09:17:49.861Z,3.42
2023-01-29T09:18:49.915Z,3.41
2023-01-29T09:19:50.084Z,3.41
2023-01-29T09:20:50.251Z,3.41
2023-01-29T09:21:50.517Z,3.41
2023-01-29T09:22:50.834Z,3.42
2023-01-29T09:23:50.959Z,3.40
2023-01-29T09:24:51.256Z,3.37
2023-01-29T09:25:51.569Z,3.40
2023-01-29T09:26:51.754Z,3.42
2023-01-29T09:27:51.888Z,3.40
2023-01-29T09:28:52.201Z,3.40
2023-01-29T09:29:52.512Z,3.40
2023-01-29T09:30:52.906Z,3.41
2023-01-29T09:31:53.180Z,3.40
2023-01-29T09:32:54.422Z,3.44
2023-01-29T09:33:53.415Z,3.42
2023-01-29T09:34:53.625Z,3.42
2023-01-29T09:35:53.793Z,3.40
2023-01-29T09:36:53.934Z,3.41
2023-01-29T09:37:54.234Z,3.42
2023-01-29T09:38:54.363Z,3.44
2023-01-29T09:39:54.688Z,3.42
2023-01-29T09:40:54.994Z,3.45
2023-01-29T09:41:55.253Z,3.47
2023-01-29T09:42:55.555Z,3.42
2023-01-29T09:43:55.765Z,3.41
2023-01-29T09:44:55.916Z,3.47
2023-01-29T09:45:56.104Z,3.48
2023-01-29T09:46:56.332Z,3.45
2023-01-29T09:47:56.514Z,3.45
2023-01-29T09:48:56.720Z,3.47
2023-01-29T09:49:56.872Z,3.48
2023-01-29T09:50:57.023Z,3.50
2023-01-29T09:51:57.336Z,3.48
2023-01-29T09:52:57.496Z,3.47
2023-01-29T09:53:57.809Z,3.50
2023-01-29T09:54:58.126Z,3.51
2023-01-29T09:55:58.305Z,3.55
2023-01-29T09:56:58.548Z,3.58
2023-01-29T09:57:58.703Z,3.56
2023-01-29T09:59:00.637Z,3.56
2023-01-29T09:59:59.226Z,3.58
2023-01-29T10:00:59.503Z,3.55
2023-01-29T10:01:59.915Z,3.56
2023-01-29T10:03:00.110Z,3.59
2023-01-29T10:04:00.218Z,3.55
2023-01-29T10:05:00.413Z,3.53
2023-01-29T10:06:00.692Z,3.55
2023-01-29T10:07:00.966Z,3.50
2023-01-29T10:08:01.155Z,3.59
2023-01-29T10:09:01.472Z,3.59
2023-01-29T10:10:01.847Z,3.59
2023-01-29T10:11:01.958Z,3.62
2023-01-29T10:12:02.097Z,3.60
2023-01-29T10:13:02.400Z,3.58
2023-01-29T10:14:02.587Z,3.59
2023-01-29T10:15:02.750Z,3.62
2023-01-29T10:16:02.961Z,3.62
2023-01-29T10:17:03.481Z,3.62
2023-01-29T10:18:03.830Z,3.59
2023-01-29T10:19:09.804Z,3.65
2023-01-29T10:20:03.851Z,3.63
2023-01-29T10:21:04.022Z,3.68
2023-01-29T10:22:04.167Z,3.69
2023-01-29T10:23:04.339Z,3.70
2023-01-29T10:24:04.498Z,3.77
2023-01-29T10:25:04.706Z,3.77
2023-01-29T10:26:04.955Z,3.76
2023-01-29T10:27:05.148Z,3.78
2023-01-29T10:28:05.437Z,3.83
2023-01-29T10:29:05.609Z,3.84
2023-01-29T10:30:05.824Z,3.80
2023-01-29T10:31:06.060Z,3.80
2023-01-29T10:32:06.338Z,3.81
2023-01-29T10:33:06.411Z,3.88
2023-01-29T10:34:06.714Z,3.94
2023-01-29T10:35:06.995Z,3.87
2023-01-29T10:36:07.950Z,3.86
2023-01-29T10:37:07.373Z,3.91
2023-01-29T10:38:07.558Z,3.92
2023-01-29T10:39:07.766Z,3.92
2023-01-29T10:40:07.955Z,3.94
2023-01-29T10:41:08.241Z,3.92
2023-01-29T10:42:08.517Z,3.96
2023-01-29T10:43:08.777Z,3.99
2023-01-29T10:44:08.958Z,3.94
2023-01-29T10:45:09.249Z,3.92
2023-01-29T10:46:09.408Z,3.94
2023-01-29T10:47:09.722Z,3.95
2023-01-29T10:48:09.890Z,3.96
2023-01-29T10:49:10.169Z,3.95
2023-01-29T10:50:10.371Z,3.94
2023-01-29T10:51:10.500Z,3.95
2023-01-29T10:52:10.729Z,3.96
2023-01-29T10:53:10.981Z,3.94
2023-01-29T10:54:11.163Z,3.94
2023-01-29T10:55:11.350Z,3.98
2023-01-29T10:56:22.336Z,3.92
2023-01-29T10:57:11.689Z,3.94
2023-01-29T10:58:11.964Z,3.88
2023-01-29T10:59:12.109Z,3.91
2023-01-29T11:00:12.404Z,3.92
2023-01-29T11:01:12.666Z,3.94
2023-01-29T11:02:12.713Z,3.94
2023-01-29T11:03:26.431Z,3.94
2023-01-29T11:04:13.331Z,3.95
2023-01-29T11:05:13.557Z,3.94
2023-01-29T11:06:13.837Z,3.95
2023-01-29T11:07:14.086Z,3.96
2023-01-29T11:08:14.356Z,3.98
2023-01-29T11:09:14.630Z,3.98
2023-01-29T11:10:15.089Z,3.99
2023-01-29T11:11:15.003Z,3.98
2023-01-29T11:12:15.263Z,3.98
2023-01-29T11:13:15.519Z,3.96
2023-01-29T11:14:15.833Z,3.98
2023-01-29T11:15:16.147Z,4.01
2023-01-29T11:16:16.354Z,3.99
2023-01-29T11:17:16.637Z,4.01
2023-01-29T11:18:16.876Z,4.01
2023-01-29T11:19:17.152Z,3.99
2023-01-29T11:20:17.845Z,3.98
2023-01-29T11:21:17.730Z,4.01
2023-01-29T11:22:17.955Z,4.04
2023-01-29T11:23:18.107Z,4.02
2023-01-29T11:24:18.252Z,4.04
2023-01-29T11:25:18.452Z,4.05
2023-01-29T11:26:18.641Z,4.04
2023-01-29T11:27:18.763Z,4.12
2023-01-29T11:28:19.011Z,4.16
2023-01-29T11:29:19.124Z,4.17
2023-01-29T11:30:19.661Z,4.17
2023-01-29T11:31:19.708Z,4.17
2023-01-29T11:32:19.844Z,4.19
2023-01-29T11:33:20.019Z,4.20
2023-01-29T11:34:20.169Z,4.20
2023-01-29T11:35:20.359Z,4.24
2023-01-29T11:36:20.518Z,4.31
2023-01-29T11:37:20.669Z,4.31
2023-01-29T11:38:20.920Z,4.28
2023-01-29T11:39:21.169Z,4.30
2023-01-29T11:40:21.340Z,4.28
2023-01-29T11:41:21.522Z,4.28
2023-01-29T11:42:21.832Z,4.22
2023-01-29T11:43:22.088Z,4.24
2023-01-29T11:44:22.222Z,4.26
2023-01-29T11:45:22.387Z,4.23
2023-01-29T11:46:22.628Z,4.24
2023-01-29T11:47:22.857Z,4.30
2023-01-29T11:48:23.058Z,4.31
2023-01-29T11:49:23.204Z,4.28
2023-01-29T11:50:23.512Z,4.28
2023-01-29T11:51:23.677Z,4.24
2023-01-29T11:52:23.983Z,4.28
2023-01-29T11:53:24.165Z,4.24
2023-01-29T11:54:24.275Z,4.24
2023-01-29T11:55:24.547Z,4.23
2023-01-29T11:56:24.621Z,4.26
2023-01-29T11:57:24.910Z,4.30
2023-01-29T11:58:25.109Z,4.24
2023-01-29T11:59:25.317Z,4.24
2023-01-29T12:00:25.445Z,4.22
2023-01-29T12:01:25.832Z,4.22
2023-01-29T12:02:25.896Z,4.24
2023-01-29T12:03:26.118Z,4.20
2023-01-29T12:04:26.406Z,4.20
2023-01-29T12:05:26.644Z,4.22
2023-01-29T12:06:26.943Z,4.22
2023-01-29T12:07:27.096Z,4.23
2023-01-29T12:08:27.302Z,4.22
2023-01-29T12:09:27.634Z,4.22
2023-01-29T12:10:27.986Z,4.22
2023-01-29T12:11:28.001Z,4.22
2023-01-29T12:12:28.271Z,4.26
2023-01-29T12:13:28.347Z,4.24
2023-01-29T12:14:28.540Z,4.23
2023-01-29T12:15:28.829Z,4.22
2023-01-29T12:16:29.219Z,4.22
2023-01-29T12:17:29.415Z,4.22
2023-01-29T12:18:29.583Z,4.24
2023-01-29T12:19:29.770Z,4.22
2023-01-29T12:20:30.136Z,4.22
2023-01-29T12:21:30.339Z,4.23
2023-01-29T12:22:30.508Z,4.24
2023-01-29T12:23:30.771Z,4.23
2023-01-29T12:24:30.826Z,4.23
2023-01-29T12:25:31.202Z,4.23
2023-01-29T12:26:31.592Z,4.23
2023-01-29T12:27:31.746Z,4.23
2023-01-29T12:28:32.016Z,4.20
2023-01-29T12:29:32.158Z,4.20
2023-01-29T12:30:32.408Z,4.19
2023-01-29T12:31:32.576Z,4.19
2023-01-29T12:32:32.768Z,4.17
2023-01-29T12:33:32.946Z,4.17
2023-01-29T12:34:33.201Z,4.17
2023-01-29T12:35:33.332Z,4.13
2023-01-29T12:36:33.578Z,4.12
2023-01-29T12:37:33.771Z,4.13
2023-01-29T12:38:33.902Z,4.13
2023-01-29T12:39:34.100Z,4.14
2023-01-29T12:40:34.393Z,4.13
2023-01-29T12:41:34.554Z,4.12
2023-01-29T12:42:34.759Z,4.13
2023-01-29T12:43:35.019Z,4.17
2023-01-29T12:44:35.205Z,4.17
2023-01-29T12:45:35.491Z,4.19
2023-01-29T12:46:35.763Z,4.19
2023-01-29T12:47:35.999Z,4.24
2023-01-29T12:48:36.121Z,4.24
2023-01-29T12:49:36.426Z,4.26
2023-01-29T12:50:36.605Z,4.30
2023-01-29T12:51:36.869Z,4.30
2023-01-29T12:52:37.039Z,4.38
2023-01-29T12:53:37.329Z,4.35
2023-01-29T12:54:37.626Z,4.35
2023-01-29T12:55:37.856Z,4.37
2023-01-29T12:56:38.144Z,4.38
2023-01-29T12:57:38.495Z,4.38
2023-01-29T12:58:38.701Z,4.42
2023-01-29T12:59:38.848Z,4.44
2023-01-29T13:00:39.042Z,4.45
2023-01-29T13:01:39.188Z,4.42
2023-01-29T13:02:39.354Z,4.44
2023-01-29T13:03:39.589Z,4.48
2023-01-29T13:04:39.849Z,4.45
2023-01-29T13:05:40.111Z,4.45
2023-01-29T13:06:40.440Z,4.42
2023-01-29T13:07:40.616Z,4.49
2023-01-29T13:08:40.761Z,4.48
2023-01-29T13:09:41.008Z,4.50
2023-01-29T13:10:41.199Z,4.44
2023-01-29T13:11:41.532Z,4.44
2023-01-29T13:12:41.840Z,4.45
2023-01-29T13:13:41.925Z,4.48
2023-01-29T13:14:42.080Z,4.45
2023-01-29T13:15:42.390Z,4.49
2023-01-29T13:16:42.509Z,4.49
2023-01-29T13:17:42.655Z,4.49
2023-01-29T13:18:42.855Z,4.48
2023-01-29T13:19:42.929Z,4.45
2023-01-29T13:20:43.169Z,4.45
2023-01-29T13:21:43.308Z,4.49
2023-01-29T13:22:43.609Z,4.49
2023-01-29T13:23:43.867Z,4.52